Heathrow, Florida
Current Conditions -  °F | °C
As of 9:53 PM on Friday 21 Nov 2014 (Local Time) from KSFB Reporting Station
Overcast Overcast  
Wind Chill: 63°   Ceiling: 10000
Heat Index: 63°   Visibility: 10mi
Dew Point: 56°   Wind: 5mph
Humidity: 78%   Direction: 10°N
Pressure: 30.28"   Gusts: NA
Location:  28.7595°N, 81.3431°W
Report Text: KSFB 220253Z 01004KT 10SM BKN100 OVC120 17/13 A3028 RMK AO2 SLP254 T01720133 53004
Loading
Personal Weather Stations






























Interactive Weather Map New forecast layout! Learn more

10-Day Weather Forecast

Advertisements
Track Severe Weather on mobile